createdAt,value
2022-12-24T04:00:26.027Z,12.38
2022-12-24T04:02:55.133Z,8.82
2022-12-24T04:05:23.445Z,9.43
2022-12-24T04:07:51.319Z,7.82
2022-12-24T04:10:19.411Z,8.98
2022-12-24T04:12:47.242Z,14.55
2022-12-24T04:15:15.074Z,12.13
2022-12-24T04:17:44.358Z,13.57
2022-12-24T04:20:13.411Z,10.93
2022-12-24T04:22:42.089Z,10.60
2022-12-24T04:25:11.159Z,14.82
2022-12-24T04:27:38.963Z,9.57
2022-12-24T04:30:08.472Z,7.75
2022-12-24T04:32:36.326Z,13.55
2022-12-24T04:35:05.970Z,9.95
2022-12-24T04:37:35.202Z,7.95
2022-12-24T04:40:03.178Z,9.65
2022-12-24T04:42:31.104Z,9.77
2022-12-24T04:44:58.974Z,14.40
2022-12-24T04:47:26.966Z,8.68
2022-12-24T04:49:54.856Z,10.75
2022-12-24T04:52:24.091Z,8.23
2022-12-24T04:54:51.914Z,8.55
2022-12-24T04:57:19.791Z,9.15
2022-12-24T04:59:47.621Z,9.45
2022-12-24T05:02:15.628Z,7.85
2022-12-24T05:04:43.688Z,8.23
2022-12-24T05:07:11.607Z,8.27
2022-12-24T05:09:41.067Z,8.07
2022-12-24T05:12:09.154Z,9.73
2022-12-24T05:14:37.203Z,8.77
2022-12-24T05:17:05.223Z,8.10
2022-12-24T05:19:33.348Z,8.05
2022-12-24T05:22:18.860Z,6.70
2022-12-24T05:25:05.627Z,12.20
2022-12-24T05:27:33.584Z,9.73
2022-12-24T05:30:01.404Z,8.57
2022-12-24T05:32:29.648Z,12.95
2022-12-24T05:34:57.511Z,7.90
2022-12-24T05:37:25.437Z,8.93
2022-12-24T05:39:54.627Z,10.48
2022-12-24T05:42:22.486Z,8.85
2022-12-24T05:44:50.293Z,7.15
2022-12-24T05:47:18.115Z,6.47
2022-12-24T05:49:45.935Z,12.18
2022-12-24T05:52:13.711Z,13.85
2022-12-24T05:54:41.545Z,18.67
2022-12-24T05:57:10.705Z,8.75
2022-12-24T05:59:38.611Z,6.57
2022-12-24T06:02:06.476Z,10.65
2022-12-24T06:04:34.399Z,11.00
2022-12-24T06:07:02.264Z,9.38
2022-12-24T06:09:30.094Z,8.93
2022-12-24T06:11:57.928Z,15.02
2022-12-24T06:14:27.128Z,9.18
2022-12-24T06:16:54.941Z,7.07
2022-12-24T06:19:22.852Z,12.65
2022-12-24T06:21:50.934Z,10.20
2022-12-24T06:24:18.922Z,11.68
2022-12-24T06:26:46.848Z,11.88
2022-12-24T06:29:14.790Z,14.07
2022-12-24T06:31:44.089Z,10.73
2022-12-24T06:34:11.959Z,12.93
2022-12-24T06:36:39.875Z,12.02
2022-12-24T06:39:07.748Z,10.80
2022-12-24T06:41:35.604Z,12.82
2022-12-24T06:44:03.528Z,12.88
2022-12-24T06:46:31.509Z,13.95
2022-12-24T06:49:00.705Z,10.52
2022-12-24T06:51:28.640Z,14.65
2022-12-24T06:53:56.515Z,14.73
2022-12-24T06:56:24.495Z,17.27
2022-12-24T06:58:52.396Z,9.55
2022-12-24T07:01:21.645Z,14.43
2022-12-24T07:03:49.779Z,11.98
2022-12-24T07:06:21.615Z,16.23
2022-12-24T07:08:49.518Z,11.25
2022-12-24T07:11:17.951Z,15.30
2022-12-24T07:13:45.976Z,9.57
2022-12-24T07:16:14.226Z,13.38
2022-12-24T07:18:42.186Z,15.35
2022-12-24T07:21:10.825Z,9.95
2022-12-24T07:23:40.000Z,13.27
2022-12-24T07:26:08.662Z,36.70
2022-12-24T07:28:36.510Z,43.22
2022-12-24T07:31:04.737Z,19.23
2022-12-24T07:33:32.791Z,14.15
2022-12-24T07:36:02.428Z,16.40
2022-12-24T07:38:31.087Z,17.10
2022-12-24T07:41:00.771Z,10.93
2022-12-24T07:43:29.422Z,14.80
2022-12-24T07:45:58.289Z,13.35
2022-12-24T07:48:27.593Z,12.00
2022-12-24T07:50:55.767Z,15.15
2022-12-24T07:53:24.369Z,11.73
2022-12-24T07:55:52.226Z,12.77
2022-12-24T07:58:21.845Z,13.35
2022-12-24T08:00:49.705Z,13.48
2022-12-24T08:03:19.394Z,12.07
2022-12-24T08:05:47.775Z,14.65
2022-12-24T08:08:15.817Z,14.57
2022-12-24T08:10:45.177Z,11.07
2022-12-24T08:13:13.421Z,13.10
2022-12-24T08:15:42.826Z,15.05
2022-12-24T08:18:11.295Z,15.55
2022-12-24T08:20:40.153Z,12.63
2022-12-24T08:23:08.281Z,21.38
2022-12-24T08:25:36.788Z,14.85
2022-12-24T08:28:04.775Z,18.50
2022-12-24T08:30:32.661Z,14.52
2022-12-24T08:33:01.916Z,16.92
2022-12-24T08:35:29.821Z,13.57
2022-12-24T08:37:57.952Z,17.85
2022-12-24T08:40:26.008Z,24.70
2022-12-24T08:42:53.917Z,12.07
2022-12-24T08:45:21.814Z,16.20
2022-12-24T08:47:49.712Z,17.45
2022-12-24T08:50:19.122Z,14.27
2022-12-24T08:52:46.932Z,17.23
2022-12-24T08:55:14.775Z,12.00
2022-12-24T08:57:42.623Z,12.18
2022-12-24T09:00:13.284Z,12.75
2022-12-24T09:02:41.217Z,13.90
2022-12-24T09:05:09.830Z,15.05
2022-12-24T09:07:39.038Z,19.30
2022-12-24T09:10:08.404Z,21.67
2022-12-24T09:12:36.283Z,16.15
2022-12-24T09:15:05.864Z,17.60
2022-12-24T09:17:34.752Z,13.38
2022-12-24T09:20:02.611Z,13.05
2022-12-24T09:22:30.482Z,13.75
2022-12-24T09:24:59.624Z,14.35
2022-12-24T09:27:27.455Z,14.32
2022-12-24T09:29:55.273Z,18.45
2022-12-24T09:32:23.113Z,14.65
2022-12-24T09:34:51.071Z,13.20
2022-12-24T09:37:19.156Z,15.23
2022-12-24T09:39:47.125Z,16.35
2022-12-24T09:42:28.878Z,16.92
2022-12-24T09:45:03.625Z,11.40
2022-12-24T09:47:38.357Z,16.73
2022-12-24T09:50:19.467Z,14.77
2022-12-24T09:52:48.594Z,20.80
2022-12-24T09:55:22.849Z,16.35
2022-12-24T09:57:55.076Z,17.48
2022-12-24T10:00:26.656Z,15.10
2022-12-24T10:02:54.620Z,22.40
2022-12-24T10:05:32.028Z,12.50
2022-12-24T10:08:08.715Z,11.23
2022-12-24T10:10:41.707Z,14.65
2022-12-24T10:13:17.496Z,13.10
2022-12-24T10:15:53.211Z,19.60
2022-12-24T10:18:30.113Z,19.55
2022-12-24T10:21:06.027Z,14.55
2022-12-24T10:23:39.309Z,18.10
2022-12-24T10:26:14.080Z,17.85
2022-12-24T10:28:49.729Z,16.38
2022-12-24T10:31:18.978Z,15.27
2022-12-24T10:33:51.519Z,17.67
2022-12-24T10:36:22.857Z,17.13
2022-12-24T10:38:50.663Z,15.43
2022-12-24T10:41:18.679Z,18.17
2022-12-24T10:43:49.439Z,14.07
2022-12-24T10:46:21.913Z,14.77
2022-12-24T10:48:55.688Z,16.20
2022-12-24T10:51:30.519Z,12.43
2022-12-24T10:54:02.867Z,17.85
2022-12-24T10:56:30.718Z,15.40
2022-12-24T10:58:59.944Z,15.93
2022-12-24T11:01:46.536Z,19.48
2022-12-24T11:04:18.642Z,14.75
2022-12-24T11:06:58.492Z,14.95
2022-12-24T11:09:29.149Z,11.30
2022-12-24T11:12:00.454Z,14.23
2022-12-24T11:14:38.303Z,14.90
2022-12-24T11:17:06.873Z,16.75
2022-12-24T11:19:38.736Z,12.30
2022-12-24T11:22:08.288Z,14.57
2022-12-24T11:24:38.869Z,21.88
2022-12-24T11:27:39.499Z,22.10
2022-12-24T11:30:25.247Z,15.18
2022-12-24T11:33:17.843Z,18.67
2022-12-24T11:35:49.276Z,13.25
2022-12-24T11:38:22.232Z,12.27
2022-12-24T11:40:51.797Z,15.82
2022-12-24T11:43:21.172Z,16.13
2022-12-24T11:45:52.878Z,15.48
2022-12-24T11:48:30.008Z,16.25
2022-12-24T11:50:59.509Z,14.85
2022-12-24T11:53:34.713Z,13.15
2022-12-24T11:56:07.735Z,13.57
2022-12-24T11:58:41.476Z,12.13
2022-12-24T12:01:19.027Z,11.73
2022-12-24T12:03:50.047Z,12.65
2022-12-24T12:06:37.583Z,16.90
2022-12-24T12:09:11.827Z,11.80
2022-12-24T12:11:42.593Z,10.20
2022-12-24T12:14:19.255Z,15.95
2022-12-24T12:17:04.466Z,11.88
2022-12-24T12:19:39.418Z,9.27
2022-12-24T12:22:12.352Z,11.75
2022-12-24T12:24:47.143Z,10.90
2022-12-24T12:27:22.387Z,11.13
2022-12-24T12:29:56.664Z,13.52
2022-12-24T12:32:29.776Z,11.38
2022-12-24T12:35:05.918Z,11.77
2022-12-24T12:37:39.199Z,11.23
2022-12-24T12:40:14.848Z,10.60
2022-12-24T12:42:51.693Z,11.05
2022-12-24T12:45:34.719Z,12.40
2022-12-24T12:48:36.368Z,10.88
2022-12-24T12:51:10.212Z,13.35
2022-12-24T12:53:48.221Z,15.38
2022-12-24T12:56:31.356Z,9.38
2022-12-24T12:59:04.460Z,13.52
2022-12-24T13:01:43.329Z,24.25
2022-12-24T13:04:35.861Z,15.48
2022-12-24T13:07:37.616Z,15.20
2022-12-24T13:10:27.132Z,13.60
2022-12-24T13:13:13.041Z,11.15
2022-12-24T13:15:58.643Z,13.15
2022-12-24T13:18:45.036Z,9.18
2022-12-24T13:21:21.986Z,12.88
2022-12-24T13:23:50.194Z,12.40
2022-12-24T13:26:19.373Z,11.25
2022-12-24T13:28:47.211Z,11.27
2022-12-24T13:31:31.561Z,12.15
2022-12-24T13:34:02.554Z,12.18
2022-12-24T13:37:04.779Z,12.57
2022-12-24T13:40:16.684Z,12.50
2022-12-24T13:42:50.099Z,12.32
2022-12-24T13:45:48.009Z,11.00
2022-12-24T13:48:30.060Z,8.88
2022-12-24T13:51:01.420Z,11.30
2022-12-24T13:53:32.960Z,15.98
2022-12-24T13:56:07.724Z,15.70
2022-12-24T13:58:37.263Z,11.95
2022-12-24T14:01:09.526Z,13.27
2022-12-24T14:03:43.342Z,14.45
2022-12-24T14:06:14.599Z,11.80
2022-12-24T14:08:46.125Z,16.05
2022-12-24T14:11:18.183Z,14.48
2022-12-24T14:13:54.946Z,13.73
2022-12-24T14:16:24.392Z,15.77
2022-12-24T14:19:00.282Z,12.93
2022-12-24T14:21:31.861Z,16.70
2022-12-24T14:24:02.600Z,15.15
2022-12-24T14:26:37.235Z,13.70
2022-12-24T14:29:14.790Z,15.02
2022-12-24T14:31:52.556Z,17.15
2022-12-24T14:34:20.713Z,13.57
2022-12-24T14:36:51.079Z,12.25
2022-12-24T14:39:26.157Z,10.55
2022-12-24T14:42:03.928Z,13.45
2022-12-24T14:44:41.212Z,14.93
2022-12-24T14:47:22.724Z,14.68
2022-12-24T14:50:25.576Z,12.52
2022-12-24T14:53:07.347Z,16.67
2022-12-24T14:55:42.075Z,19.27
2022-12-24T14:58:37.225Z,15.73
2022-12-24T15:01:21.022Z,14.80
2022-12-24T15:04:01.905Z,17.13
2022-12-24T15:06:32.742Z,16.83
2022-12-24T15:09:00.855Z,18.92
2022-12-24T15:11:29.035Z,15.82
2022-12-24T15:14:01.017Z,11.40
2022-12-24T15:16:33.424Z,11.50
2022-12-24T15:19:05.023Z,11.68
2022-12-24T15:21:34.708Z,13.27
2022-12-24T15:24:02.642Z,13.18
2022-12-24T15:26:36.061Z,14.35
2022-12-24T15:29:22.151Z,13.50
2022-12-24T15:31:54.321Z,12.18
2022-12-24T15:34:28.565Z,11.52
2022-12-24T15:37:04.289Z,18.05
2022-12-24T15:39:32.255Z,13.45
2022-12-24T15:42:15.179Z,12.23
2022-12-24T15:44:50.611Z,12.80
2022-12-24T15:47:22.181Z,16.98
2022-12-24T15:49:53.180Z,15.90
2022-12-24T15:52:24.910Z,17.52
2022-12-24T15:54:57.658Z,13.07
2022-12-24T15:57:30.897Z,19.45
2022-12-24T16:00:01.488Z,15.40
2022-12-24T16:02:35.760Z,16.02
2022-12-24T16:05:20.427Z,17.48
2022-12-24T16:08:10.780Z,14.48
2022-12-24T16:10:40.924Z,14.80
2022-12-24T16:13:19.218Z,19.08
2022-12-24T16:15:53.048Z,19.30
2022-12-24T16:18:26.133Z,17.50
2022-12-24T16:20:55.702Z,15.38
2022-12-24T16:23:26.200Z,25.50
2022-12-24T16:25:54.337Z,22.17
2022-12-24T16:28:23.243Z,22.52
2022-12-24T16:30:55.472Z,17.08
2022-12-24T16:33:23.794Z,18.73
2022-12-24T16:35:51.806Z,14.38
2022-12-24T16:38:19.655Z,17.77
2022-12-24T16:40:48.058Z,18.65
2022-12-24T16:43:33.648Z,15.00
2022-12-24T16:46:05.329Z,22.70
2022-12-24T16:48:36.276Z,17.95
2022-12-24T16:51:04.283Z,16.10
2022-12-24T16:53:32.120Z,18.23
2022-12-24T16:55:59.961Z,21.98
2022-12-24T16:58:28.552Z,24.85
2022-12-24T17:00:56.878Z,21.63
2022-12-24T17:03:26.162Z,20.50
2022-12-24T17:05:54.032Z,22.70
2022-12-24T17:08:21.836Z,21.88
2022-12-24T17:10:52.466Z,19.52
2022-12-24T17:13:20.293Z,22.17
2022-12-24T17:15:48.156Z,25.58
2022-12-24T17:18:16.639Z,28.35
2022-12-24T17:20:45.794Z,26.52
2022-12-24T17:23:13.591Z,19.75
2022-12-24T17:25:41.413Z,21.80
2022-12-24T17:28:09.231Z,26.83
2022-12-24T17:30:40.007Z,21.80
2022-12-24T17:33:14.140Z,29.60
2022-12-24T17:35:43.162Z,32.00
2022-12-24T17:38:12.352Z,28.92
2022-12-24T17:40:40.175Z,33.05
2022-12-24T17:43:08.103Z,26.80
2022-12-24T17:45:35.936Z,25.83
2022-12-24T17:48:03.901Z,27.30
2022-12-24T17:50:31.725Z,26.00
2022-12-24T17:52:59.550Z,31.33
2022-12-24T17:55:28.722Z,34.65
2022-12-24T17:57:56.546Z,29.92
2022-12-24T18:00:28.100Z,24.58
2022-12-24T18:03:00.692Z,27.00
2022-12-24T18:05:28.663Z,21.23
2022-12-24T18:07:56.584Z,21.60
2022-12-24T18:10:24.752Z,19.92
2022-12-24T18:12:53.908Z,22.75
2022-12-24T18:15:22.099Z,20.88
2022-12-24T18:17:52.284Z,16.38
2022-12-24T18:20:20.504Z,16.20
2022-12-24T18:22:48.636Z,17.40
2022-12-24T18:25:17.069Z,19.55
2022-12-24T18:27:44.879Z,16.27
2022-12-24T18:30:15.084Z,17.23
2022-12-24T18:32:42.985Z,16.42
2022-12-24T18:35:11.518Z,16.27
2022-12-24T18:37:39.397Z,17.15
2022-12-24T18:40:08.633Z,11.68
2022-12-24T18:42:36.741Z,14.50
2022-12-24T18:45:04.907Z,15.30
2022-12-24T18:47:34.069Z,18.27
2022-12-24T18:50:02.158Z,15.45
2022-12-24T18:52:32.323Z,28.40
2022-12-24T18:55:00.160Z,32.95
2022-12-24T18:57:27.979Z,23.17
2022-12-24T18:59:55.885Z,21.92
2022-12-24T19:02:23.935Z,21.65
2022-12-24T19:04:53.300Z,20.55
2022-12-24T19:07:21.138Z,18.27
2022-12-24T19:09:48.988Z,21.33
2022-12-24T19:12:16.896Z,15.23
2022-12-24T19:14:44.721Z,17.95
2022-12-24T19:17:12.554Z,68.28
2022-12-24T19:19:40.387Z,181.60
2022-12-24T19:22:09.563Z,147.90
2022-12-24T19:24:37.375Z,40.15
2022-12-24T19:27:05.193Z,21.02
2022-12-24T19:29:32.996Z,21.63
2022-12-24T19:32:00.904Z,18.25
2022-12-24T19:34:28.928Z,20.20
2022-12-24T19:36:56.740Z,27.40
2022-12-24T19:39:31.727Z,34.00
2022-12-24T19:42:00.261Z,26.40
2022-12-24T19:44:28.499Z,27.13
2022-12-24T19:46:56.338Z,20.88
2022-12-24T19:49:24.145Z,23.75
2022-12-24T19:51:51.985Z,23.48
2022-12-24T19:54:19.825Z,22.55
2022-12-24T19:56:49.022Z,21.52
2022-12-24T19:59:17.895Z,28.13
2022-12-24T20:01:47.107Z,25.98
2022-12-24T20:04:18.225Z,24.08
2022-12-24T20:06:46.027Z,21.73
2022-12-24T20:09:14.362Z,21.85
2022-12-24T20:11:42.191Z,21.77
2022-12-24T20:14:12.725Z,22.63
2022-12-24T20:16:40.883Z,22.33
2022-12-24T20:19:13.944Z,17.58
2022-12-24T20:21:41.957Z,21.05
2022-12-24T20:24:09.926Z,23.65
2022-12-24T20:26:37.840Z,26.63
2022-12-24T20:29:07.564Z,22.95
2022-12-24T20:31:38.655Z,22.25
2022-12-24T20:34:07.343Z,21.65
2022-12-24T20:36:37.120Z,27.63
2022-12-24T20:39:05.717Z,24.55
2022-12-24T20:41:34.132Z,20.92
2022-12-24T20:44:04.401Z,21.98
2022-12-24T20:46:33.450Z,23.27
2022-12-24T20:49:02.747Z,20.52
2022-12-24T20:51:30.577Z,25.75
2022-12-24T20:54:00.651Z,25.70
2022-12-24T20:56:29.181Z,19.90
2022-12-24T20:58:58.328Z,18.92
2022-12-24T21:01:28.401Z,22.33
2022-12-24T21:04:00.151Z,25.30
2022-12-24T21:06:29.475Z,19.95
2022-12-24T21:08:57.338Z,19.88
2022-12-24T21:11:43.585Z,18.15
2022-12-24T21:14:11.673Z,16.38
2022-12-24T21:16:40.682Z,18.02
2022-12-24T21:19:09.908Z,17.88
2022-12-24T21:21:39.121Z,20.40
2022-12-24T21:24:07.745Z,21.08
2022-12-24T21:26:36.268Z,20.38
2022-12-24T21:29:06.554Z,20.52
2022-12-24T21:31:34.903Z,21.55
2022-12-24T21:34:03.461Z,20.77
2022-12-24T21:36:31.624Z,20.40
2022-12-24T21:39:00.795Z,20.88
2022-12-24T21:41:28.993Z,22.80
2022-12-24T21:43:56.805Z,18.88
2022-12-24T21:46:27.103Z,21.08
2022-12-24T21:49:14.028Z,17.17
2022-12-24T21:51:43.991Z,13.82
2022-12-24T21:54:27.101Z,18.95
2022-12-24T21:57:14.848Z,16.42
2022-12-24T21:59:42.988Z,16.10
2022-12-24T22:02:12.724Z,17.92
2022-12-24T22:04:41.051Z,24.17
2022-12-24T22:07:35.567Z,23.20
2022-12-24T22:10:23.063Z,20.15
2022-12-24T22:12:50.963Z,19.77
2022-12-24T22:15:19.234Z,15.02
2022-12-24T22:17:47.304Z,21.48
2022-12-24T22:20:15.261Z,20.70
2022-12-24T22:22:43.086Z,20.02
2022-12-24T22:25:12.325Z,19.40
2022-12-24T22:27:40.164Z,21.65
2022-12-24T22:30:09.412Z,17.52
2022-12-24T22:32:37.423Z,21.90
2022-12-24T22:35:05.778Z,21.85
2022-12-24T22:37:33.747Z,22.98
2022-12-24T22:40:01.594Z,19.30
2022-12-24T22:42:32.695Z,21.92
2022-12-24T22:45:00.833Z,20.25
2022-12-24T22:47:29.804Z,17.35
2022-12-24T22:49:57.611Z,16.00
2022-12-24T22:52:25.562Z,13.30
2022-12-24T22:54:53.431Z,12.88
2022-12-24T22:57:21.266Z,12.40
2022-12-24T22:59:50.434Z,12.52
